Time;durP1;ratioP1;P1;durP2;ratioP2;P2;SDS_P1;SDS_P2;PMS_P1;PMS_P2;Temp;Humidity;BMP_temperature;BMP_pressure;BME280_temperature;BME280_humidity;BME280_pressure;Samples;Min_cycle;Max_cycle;Signal;HPM_P1;HPM_P2
2022/11/09 00:01:19;;;;;;;10.17;2.30;;;;;;;18.09;100.00;100303.69;4993820;28;20301;-51
2022/11/09 00:03:46;;;;;;;7.97;2.40;;;;;;;17.80;100.00;100310.22;4989503;28;20266;-51
2022/11/09 00:06:12;;;;;;;7.47;2.38;;;;;;;18.14;100.00;100303.75;4982512;28;20102;-51
2022/11/09 00:08:40;;;;;;;9.05;2.25;;;;;;;17.66;100.00;100320.63;4985753;28;20035;-52
2022/11/09 00:11:10;;;;;;;9.83;2.47;;;;;;;17.69;100.00;100308.47;4991206;28;20038;-51
2022/11/09 00:13:38;;;;;;;12.23;2.70;;;;;;;18.27;100.00;100316.81;4990182;28;20280;-54
2022/11/09 00:16:04;;;;;;;10.93;2.40;;;;;;;18.40;100.00;100303.91;4988074;28;20277;-56
2022/11/09 00:18:30;;;;;;;;;;;;;;;18.80;100.00;100318.78;4990313;28;20257;-51
2022/11/09 00:20:56;;;;;;;10.83;2.20;;;;;;;18.48;100.00;100308.84;4987683;28;19921;-50
2022/11/09 00:23:22;;;;;;;15.48;3.63;;;;;;;18.51;100.00;100316.44;4989924;28;20035;-48
2022/11/09 00:25:48;;;;;;;6.38;2.45;;;;;;;18.33;100.00;100309.56;4989136;28;20036;-52
2022/11/09 00:28:14;;;;;;;12.13;2.78;;;;;;;18.14;100.00;100319.97;4988456;28;20098;-52
2022/11/09 00:30:40;;;;;;;11.13;2.08;;;;;;;18.48;100.00;100315.06;4993803;28;20051;-50
2022/11/09 00:33:06;;;;;;;17.27;4.30;;;;;;;18.06;100.00;100313.16;4986934;28;20059;-53
2022/11/09 00:35:32;;;;;;;12.40;2.67;;;;;;;18.04;100.00;100305.28;5007709;28;20031;-51
2022/11/09 00:37:57;;;;;;;8.68;1.92;;;;;;;18.32;100.00;100311.44;4989635;28;20101;-52
2022/11/09 00:40:22;;;;;;;11.07;1.73;;;;;;;18.32;100.00;100316.03;5015369;28;20035;-54
2022/11/09 00:42:48;;;;;;;8.65;2.58;;;;;;;18.04;100.00;100304.47;4990073;28;20118;-53
2022/11/09 00:45:14;;;;;;;6.50;1.80;;;;;;;20.14;100.00;100314.75;4990139;28;20076;-52
2022/11/09 00:47:40;;;;;;;13.15;2.70;;;;;;;21.98;100.00;100323.53;4989017;28;20043;-54
2022/11/09 00:50:06;;;;;;;8.00;1.95;;;;;;;20.22;100.00;100316.09;4980586;28;20043;-53
2022/11/09 00:52:31;;;;;;;13.98;2.85;;;;;;;19.57;100.00;100318.22;5015385;28;20070;-51
2022/11/09 00:54:57;;;;;;;10.70;2.30;;;;;;;19.59;100.00;100313.34;4987221;28;20039;-51
2022/11/09 00:57:23;;;;;;;9.02;2.25;;;;;;;20.22;100.00;100316.09;4983926;28;20030;-52
2022/11/09 00:59:48;;;;;;;10.95;2.28;;;;;;;19.22;100.00;100308.09;4990241;28;20039;-51
2022/11/09 01:02:13;;;;;;;10.10;2.90;;;;;;;19.68;100.00;100312.81;4999825;28;20072;-53
2022/11/09 01:04:39;;;;;;;19.45;4.18;;;;;;;19.04;100.00;100310.25;4988989;28;20045;-51
2022/11/09 01:07:06;;;;;;;16.45;3.88;;;;;;;19.79;100.00;100314.44;4976792;28;20061;-53
2022/11/09 01:09:32;;;;;;;10.63;3.50;;;;;;;19.18;100.00;100305.94;4986011;28;20042;-51
2022/11/09 01:11:58;;;;;;;14.37;2.87;;;;;;;19.17;100.00;100319.75;4992161;28;20281;-51
2022/11/09 01:14:23;;;;;;;9.50;3.00;;;;;;;19.31;100.00;100315.47;5003638;28;20023;-51
2022/11/09 01:16:50;;;;;;;10.23;2.08;;;;;;;19.70;100.00;100318.78;4989084;28;20039;-53
2022/11/09 01:19:16;;;;;;;12.95;2.40;;;;;;;18.97;100.00;100321.28;4990808;28;20034;-54
2022/11/09 01:21:41;;;;;;;14.77;1.87;;;;;;;19.10;100.00;100330.84;4987966;28;20027;-49
2022/11/09 01:24:07;;;;;;;13.32;2.78;;;;;;;18.47;100.00;100320.75;4992785;28;20034;-54
2022/11/09 01:26:33;;;;;;;14.70;3.17;;;;;;;18.66;100.00;100331.94;4991199;28;20089;-48
2022/11/09 01:28:59;;;;;;;11.80;3.72;;;;;;;18.37;100.00;100318.78;4981092;28;20035;-51
2022/11/09 01:31:25;;;;;;;11.07;3.03;;;;;;;18.69;100.00;100322.50;4992237;28;20049;-52
2022/11/09 01:33:51;;;;;;;7.93;2.30;;;;;;;19.26;100.00;100326.28;4986748;28;20057;-54
2022/11/09 01:36:20;;;;;;;7.15;2.05;;;;;;;18.32;100.00;100324.16;4989340;28;20651;-53
2022/11/09 01:38:46;;;;;;;6.57;1.97;;;;;;;18.40;100.00;100320.97;4984672;28;20039;-54
2022/11/09 01:41:15;;;;;;;9.45;1.75;;;;;;;18.33;100.00;100325.78;5003249;28;20289;-52
2022/11/09 01:43:41;;;;;;;13.60;2.23;;;;;;;18.11;100.00;100321.31;4988859;28;20042;-52
2022/11/09 01:46:07;;;;;;;11.95;2.05;;;;;;;18.15;100.00;100319.72;4990649;28;20265;-51
2022/11/09 01:48:46;;;;;;;;;;;;;;;18.47;100.00;100320.75;4981271;28;20106;-51
2022/11/09 01:51:22;;;;;;;12.95;3.70;;;;;;;18.47;100.00;100326.16;4977960;28;19958;-51
2022/11/09 01:53:51;;;;;;;9.13;2.87;;;;;;;18.74;100.00;100333.34;4990546;28;20035;-50
2022/11/09 01:56:18;;;;;;;9.27;2.17;;;;;;;18.47;100.00;100336.97;4988243;28;20256;-52
2022/11/09 01:58:58;;;;;;;18.80;3.70;;;;;;;18.37;100.00;100329.59;4990566;28;20299;-52
2022/11/09 02:01:27;;;;;;;7.67;1.97;;;;;;;18.95;100.00;100337.00;4991109;28;20031;-51
2022/11/09 02:04:16;;;;;;;14.55;2.83;;;;;;;18.31;100.00;100333.34;4990322;28;20734;-51
2022/11/09 02:06:44;;;;;;;7.83;1.83;;;;;;;18.28;100.00;100323.06;5006795;28;20035;-53
2022/11/09 02:09:38;;;;;;;7.67;2.33;;;;;;;18.46;100.00;100309.09;4992065;28;20271;-50
2022/11/09 02:12:04;;;;;;;9.23;2.30;;;;;;;18.04;100.00;100312.59;4985955;28;20292;-53
2022/11/09 02:14:31;;;;;;;8.00;2.33;;;;;;;18.15;100.00;100319.72;5001240;28;20272;-53
2022/11/09 02:16:58;;;;;;;12.47;2.80;;;;;;;18.51;100.00;100312.91;4984342;28;20035;-49
2022/11/09 02:19:23;;;;;;;15.82;2.70;;;;;;;18.04;100.00;100309.88;4979619;28;20320;-55
2022/11/09 02:21:49;;;;;;;6.40;2.08;;;;;;;18.36;100.00;100311.72;4986189;28;20043;-51
2022/11/09 02:24:15;;;;;;;8.38;2.22;;;;;;;18.15;100.00;100316.19;4974546;28;20043;-51
2022/11/09 02:26:44;;;;;;;11.93;2.55;;;;;;;18.07;100.00;100325.59;4983078;28;20038;-52
2022/11/09 02:29:13;;;;;;;13.37;2.73;;;;;;;17.55;100.00;100330.53;4995996;28;20039;-51
2022/11/09 02:31:44;;;;;;;14.00;3.10;;;;;;;17.85;100.00;100334.59;4993854;28;20352;-50
2022/11/09 02:34:15;;;;;;;8.97;2.30;;;;;;;18.09;100.00;100325.31;4992589;28;20265;-51
2022/11/09 02:36:42;;;;;;;14.27;2.67;;;;;;;17.91;100.00;100325.44;4993197;28;20264;-51
2022/11/09 02:39:15;;;;;;;11.37;3.33;;;;;;;18.50;100.00;100331.03;5004670;28;20269;-54
2022/11/09 02:41:59;;;;;;;12.83;2.60;;;;;;;18.37;100.00;100335.03;4985530;28;20288;-53
2022/11/09 02:44:34;;;;;;;8.05;2.95;;;;;;;18.28;100.00;100340.09;4991249;28;20316;-54
2022/11/09 02:46:59;;;;;;;10.77;2.80;;;;;;;18.62;100.00;100330.84;4998487;28;20034;-52
2022/11/09 02:49:26;;;;;;;;;;;;;;;18.92;100.00;100332.09;5002891;28;20269;-53
2022/11/09 02:51:52;;;;;;;12.57;2.53;;;;;;;17.83;100.00;100336.72;4972508;28;19986;-51
2022/11/09 02:54:17;;;;;;;12.32;2.50;;;;;;;17.78;100.00;100331.28;4952354;28;20035;-51
2022/11/09 02:56:43;;;;;;;14.63;2.50;;;;;;;17.82;100.00;100335.09;4952348;29;20047;-51
2022/11/09 02:59:08;;;;;;;16.30;2.57;;;;;;;17.50;100.00;100338.56;4952906;29;20297;-53
2022/11/09 03:01:34;;;;;;;9.27;2.38;;;;;;;17.31;100.00;100340.78;4952335;29;20055;-54
2022/11/09 03:04:00;;;;;;;15.07;3.58;;;;;;;17.71;100.00;100341.47;4951325;29;20047;-53
2022/11/09 03:06:33;;;;;;;9.57;2.23;;;;;;;17.77;100.00;100333.16;4951659;29;20036;-52
2022/11/09 03:09:08;;;;;;;10.63;2.40;;;;;;;17.39;100.00;100317.91;4955389;29;20032;-51
2022/11/09 03:11:35;;;;;;;11.83;3.13;;;;;;;17.38;100.00;100329.78;4953780;28;20297;-51
2022/11/09 03:14:00;;;;;;;7.50;1.92;;;;;;;17.45;100.00;100341.22;4953073;29;20300;-53
2022/11/09 03:16:26;;;;;;;13.65;2.88;;;;;;;18.03;100.00;100340.72;4951130;29;20060;-52
2022/11/09 03:18:51;;;;;;;14.82;4.68;;;;;;;17.69;100.00;100351.72;4954103;29;20039;-50
2022/11/09 03:21:17;;;;;;;8.63;2.80;;;;;;;18.06;100.00;100345.63;4956076;28;20040;-51
2022/11/09 03:23:44;;;;;;;6.23;1.87;;;;;;;17.10;100.00;100339.75;4956069;28;20031;-52
2022/11/09 03:26:09;;;;;;;12.23;2.33;;;;;;;17.24;100.00;100334.78;4955162;29;20289;-51
2022/11/09 03:28:36;;;;;;;12.75;2.00;;;;;;;17.29;100.00;100351.84;4955412;28;20067;-51
2022/11/09 03:31:02;;;;;;;17.57;3.80;;;;;;;17.19;100.00;100351.72;4955202;29;20103;-52
2022/11/09 03:33:28;;;;;;;11.98;2.70;;;;;;;17.61;100.00;100355.69;4954443;29;20266;-53
2022/11/09 03:35:54;;;;;;;9.60;1.70;;;;;;;17.55;100.00;100362.97;4955225;29;20028;-52
2022/11/09 03:38:21;;;;;;;14.10;2.87;;;;;;;17.33;100.00;100363.81;4955229;28;20278;-52
2022/11/09 03:40:48;;;;;;;10.07;2.60;;;;;;;17.46;100.00;100365.28;4955185;29;20305;-50
2022/11/09 03:43:15;;;;;;;12.00;2.93;;;;;;;17.31;100.00;100382.16;4955626;29;20388;-49
2022/11/09 03:45:40;;;;;;;8.70;3.07;;;;;;;17.66;100.00;100374.69;4955984;28;20286;-51
2022/11/09 03:48:06;;;;;;;12.55;2.97;;;;;;;17.69;100.00;100384.19;4954984;29;20044;-52
2022/11/09 03:50:33;;;;;;;14.10;2.92;;;;;;;17.33;100.00;100380.00;4955716;29;20055;-52
2022/11/09 03:53:00;;;;;;;10.23;1.70;;;;;;;17.58;100.00;100394.06;4954918;28;20078;-53
2022/11/09 03:55:27;;;;;;;12.47;2.73;;;;;;;17.52;100.00;100390.47;4955660;29;20272;-51
2022/11/09 03:57:53;;;;;;;11.57;3.13;;;;;;;17.58;100.00;100399.47;4955221;28;20270;-49
2022/11/09 04:00:20;;;;;;;6.30;1.80;;;;;;;17.73;100.00;100402.34;4955601;28;20050;-52
2022/11/09 04:02:48;;;;;;;12.37;1.93;;;;;;;17.64;100.00;100398.44;4955503;29;20093;-54
2022/11/09 04:05:14;;;;;;;8.50;1.55;;;;;;;17.38;100.00;100400.84;4955468;29;20313;-49
2022/11/09 04:07:49;;;;;;;15.50;2.10;;;;;;;17.68;100.00;100410.41;4955411;29;20058;-55
2022/11/09 04:10:15;;;;;;;12.27;2.40;;;;;;;17.45;100.00;100412.31;4953980;29;20107;-52
2022/11/09 04:12:40;;;;;;;10.90;2.38;;;;;;;17.26;100.00;100413.69;4955540;29;20313;-51
2022/11/09 04:15:06;;;;;;;10.37;2.30;;;;;;;17.25;100.00;100401.25;4955246;28;20047;-50
2022/11/09 04:17:32;;;;;;;9.77;2.10;;;;;;;17.29;100.00;100408.59;4955443;28;20039;-51
2022/11/09 04:19:57;;;;;;;9.13;2.10;;;;;;;17.36;100.00;100411.09;4955128;28;20039;-52
2022/11/09 04:22:23;;;;;;;10.27;2.27;;;;;;;17.10;100.00;100415.38;4955475;28;20095;-52
2022/11/09 04:24:48;;;;;;;6.85;1.45;;;;;;;16.70;100.00;100415.31;4955211;28;20043;-50
2022/11/09 04:27:16;;;;;;;10.07;2.10;;;;;;;17.12;100.00;100408.66;4952624;28;20027;-53
2022/11/09 04:29:41;;;;;;;14.00;2.47;;;;;;;16.88;100.00;100405.31;4955268;29;20274;-51
2022/11/09 04:32:07;;;;;;;16.58;2.85;;;;;;;16.87;100.00;100411.78;4954866;29;20066;-49
2022/11/09 04:34:33;;;;;;;9.23;2.17;;;;;;;16.85;100.00;100416.63;4952569;29;20047;-52
2022/11/09 04:36:59;;;;;;;10.83;1.90;;;;;;;16.88;100.00;100413.44;4954655;28;20262;-52
2022/11/09 04:39:25;;;;;;;12.07;3.45;;;;;;;16.90;100.00;100414.00;4955324;28;20343;-49
2022/11/09 04:41:51;;;;;;;15.35;2.30;;;;;;;16.88;100.00;100421.53;4952865;29;20051;-49
2022/11/09 04:44:16;;;;;;;11.80;2.88;;;;;;;16.76;100.00;100433.22;4954826;29;20059;-52
2022/11/09 04:46:42;;;;;;;11.13;3.33;;;;;;;16.88;100.00;100413.44;4954768;29;20047;-52
2022/11/09 04:49:07;;;;;;;16.17;2.67;;;;;;;17.03;100.00;100424.47;4954877;29;20103;-50
2022/11/09 04:51:33;;;;;;;10.37;2.27;;;;;;;16.89;100.00;100421.28;4961576;28;20058;-54
2022/11/09 04:53:58;;;;;;;13.63;2.27;;;;;;;17.28;100.00;100436.69;4987241;28;20299;-53
2022/11/09 04:56:24;;;;;;;9.37;3.33;;;;;;;17.32;100.00;100440.53;4986309;28;20315;-53
2022/11/09 04:58:49;;;;;;;10.80;2.63;;;;;;;16.97;100.00;100433.53;4986766;28;20279;-53
2022/11/09 05:01:16;;;;;;;16.00;3.03;;;;;;;16.88;100.00;100429.63;4993272;28;20054;-48
2022/11/09 05:03:42;;;;;;;17.30;3.03;;;;;;;16.89;100.00;100434.78;4988996;28;20284;-51
2022/11/09 05:08:53;;;;;;;15.93;2.80;;;;;;;17.01;100.00;100431.19;4982558;28;20272;-53
2022/11/09 05:11:18;;;;;;;;;;;;;;;16.89;100.00;100415.06;4988092;28;20766;-49
2022/11/09 05:13:44;;;;;;;20.57;4.60;;;;;;;16.87;100.00;100433.41;4985424;28;19999;-52
2022/11/09 05:16:10;;;;;;;17.13;3.25;;;;;;;16.99;100.00;100417.13;5009560;28;20034;-49
2022/11/09 05:18:35;;;;;;;16.42;4.28;;;;;;;17.34;100.00;100432.16;4984082;28;20034;-50
2022/11/09 05:21:02;;;;;;;13.27;3.77;;;;;;;17.51;100.00;100421.28;4990269;28;20107;-53
2022/11/09 05:26:14;;;;;;;11.73;2.33;;;;;;;16.65;100.00;100426.06;4985124;28;20050;-53
2022/11/09 05:28:39;;;;;;;11.30;2.33;;;;;;;16.80;100.00;100416.53;4985418;28;20288;-53
2022/11/09 05:31:05;;;;;;;15.07;2.47;;;;;;;16.62;100.00;100415.75;4992038;28;20296;-53
2022/11/09 05:33:31;;;;;;;12.90;2.75;;;;;;;16.84;100.00;100423.06;4992296;28;20283;-48
2022/11/09 05:35:56;;;;;;;17.25;2.90;;;;;;;16.80;100.00;100416.53;4988080;28;20032;-52
2022/11/09 05:38:23;;;;;;;17.13;3.78;;;;;;;16.71;100.00;100416.97;4986963;28;20044;-51
2022/11/09 05:40:50;;;;;;;21.43;3.07;;;;;;;16.60;100.00;100429.47;4990148;28;20057;-50
2022/11/09 05:43:17;;;;;;;13.37;3.23;;;;;;;16.76;100.00;100425.13;4989958;28;20272;-52
2022/11/09 05:45:42;;;;;;;17.50;4.00;;;;;;;16.61;100.00;100425.72;4992294;28;20365;-51
2022/11/09 05:48:09;;;;;;;19.52;3.65;;;;;;;16.35;100.00;100424.47;4987069;28;20091;-51
2022/11/09 05:50:34;;;;;;;15.52;3.72;;;;;;;16.64;100.00;100419.03;4991414;28;20038;-54
2022/11/09 05:53:17;;;;;;;18.47;4.20;;;;;;;16.73;100.00;100425.63;4966555;29;20047;-49
2022/11/09 05:55:43;;;;;;;22.52;5.32;;;;;;;16.91;100.00;100423.72;4965801;29;20282;-53
2022/11/09 05:58:08;;;;;;;18.43;5.20;;;;;;;16.75;100.00;100428.09;4973034;29;20035;-48
2022/11/09 06:00:34;;;;;;;22.48;5.80;;;;;;;17.04;100.00;100461.22;4968445;28;20035;-52
2022/11/09 06:03:03;;;;;;;14.93;3.60;;;;;;;17.04;100.00;100417.19;4965693;28;20035;-51
2022/11/09 06:05:30;;;;;;;12.37;3.17;;;;;;;16.92;100.00;100430.78;4962957;29;20032;-51
2022/11/09 06:08:04;;;;;;;13.33;3.53;;;;;;;16.62;100.00;100435.44;4966040;28;20276;-52
2022/11/09 06:10:30;;;;;;;13.17;3.37;;;;;;;17.11;100.00;100427.81;4972872;28;20273;-50
2022/11/09 06:12:56;;;;;;;9.75;2.95;;;;;;;16.98;100.00;100434.38;4963091;28;20274;-52
2022/11/09 06:15:23;;;;;;;15.82;3.70;;;;;;;16.59;100.00;100437.81;4969702;28;20065;-50
2022/11/09 06:17:53;;;;;;;14.40;3.25;;;;;;;16.74;100.00;100440.75;4970585;28;20035;-52
2022/11/09 06:20:19;;;;;;;14.97;3.10;;;;;;;16.60;100.00;100424.09;4969674;29;20039;-51
2022/11/09 06:22:51;;;;;;;;;;;;;;;17.02;100.00;100430.13;4967112;28;20277;-50
2022/11/09 06:25:16;;;;;;;34.23;4.17;;;;;;;16.78;100.00;100436.50;4967359;29;19925;-52
2022/11/09 06:27:42;;;;;;;15.65;4.95;;;;;;;16.92;100.00;100441.56;4969128;29;20278;-53
2022/11/09 06:30:08;;;;;;;16.98;3.05;;;;;;;17.03;100.00;100448.78;4967582;28;20055;-54
2022/11/09 06:32:34;;;;;;;17.42;3.40;;;;;;;16.38;100.00;100442.06;4969440;28;20031;-53
2022/11/09 06:34:59;;;;;;;24.37;4.43;;;;;;;16.49;100.00;100455.50;4971222;29;20046;-50
2022/11/09 06:37:25;;;;;;;15.03;3.37;;;;;;;16.97;100.00;100465.94;4972138;28;20303;-51
2022/11/09 06:39:51;;;;;;;18.30;3.83;;;;;;;16.91;100.00;100464.25;4970406;29;20039;-55
2022/11/09 06:42:17;;;;;;;11.98;4.53;;;;;;;16.86;100.00;100456.88;4970392;28;20094;-50
2022/11/09 06:44:42;;;;;;;24.90;5.35;;;;;;;16.94;100.00;100460.22;4970641;28;20034;-51
2022/11/09 06:47:08;;;;;;;15.32;3.67;;;;;;;16.83;100.00;100464.63;4971457;28;20037;-50
2022/11/09 06:49:33;;;;;;;21.17;3.83;;;;;;;16.71;100.00;100468.25;4972305;28;20043;-53
2022/11/09 06:51:58;;;;;;;14.77;3.43;;;;;;;16.47;100.00;100463.00;4979377;28;20134;-53
2022/11/09 06:54:24;;;;;;;18.90;4.57;;;;;;;16.40;100.00;100473.16;4991721;28;20031;-51
2022/11/09 06:56:53;;;;;;;25.92;3.47;;;;;;;16.24;100.00;100468.53;4989844;28;20100;-54
2022/11/09 06:59:18;;;;;;;16.13;3.70;;;;;;;16.39;100.00;100468.81;4991474;28;20035;-49
2022/11/09 07:01:44;;;;;;;13.70;4.28;;;;;;;16.83;100.00;100470.03;5005825;28;20287;-48
2022/11/09 07:04:12;;;;;;;15.60;5.03;;;;;;;17.00;100.00;100476.28;4991341;28;20047;-49
2022/11/09 07:06:42;;;;;;;15.03;3.43;;;;;;;16.73;100.00;100459.94;4989164;28;20035;-54
2022/11/09 07:09:09;;;;;;;20.20;4.43;;;;;;;16.83;100.00;100472.75;4991299;28;20264;-49
2022/11/09 07:11:35;;;;;;;18.43;3.60;;;;;;;16.75;100.00;100468.59;4986475;28;20307;-51
2022/11/09 07:14:01;;;;;;;11.63;3.38;;;;;;;16.90;100.00;100465.31;4988992;28;20276;-51
2022/11/09 07:16:28;;;;;;;13.30;2.97;;;;;;;16.62;100.00;100480.53;4987287;28;20059;-54
2022/11/09 07:18:54;;;;;;;9.77;3.17;;;;;;;16.82;100.00;100485.44;4990462;28;20289;-51
2022/11/09 07:21:19;;;;;;;14.27;3.07;;;;;;;17.06;100.00;100469.88;4987719;28;20292;-49
2022/11/09 07:23:47;;;;;;;12.32;2.95;;;;;;;17.01;100.00;100480.63;4990674;28;20124;-52
2022/11/09 07:26:14;;;;;;;15.93;4.20;;;;;;;17.20;100.00;100486.59;4988316;28;20038;-50
2022/11/09 07:28:39;;;;;;;10.80;4.03;;;;;;;17.00;100.00;100483.59;4990102;28;20277;-50
2022/11/09 07:31:05;;;;;;;15.73;3.50;;;;;;;16.85;100.00;100492.25;4986149;28;20035;-49
2022/11/09 07:33:32;;;;;;;9.60;2.60;;;;;;;17.08;100.00;100493.97;4983313;28;20051;-50
2022/11/09 07:35:59;;;;;;;19.03;3.80;;;;;;;16.96;100.00;100495.94;4984956;28;20342;-53
2022/11/09 07:38:26;;;;;;;16.33;2.43;;;;;;;17.12;100.00;100483.50;4981081;28;20277;-49
2022/11/09 07:40:52;;;;;;;13.47;3.00;;;;;;;17.44;100.00;100485.53;4983595;28;20278;-50
2022/11/09 07:43:17;;;;;;;26.88;5.18;;;;;;;17.56;100.00;100483.56;4980416;28;20276;-50
2022/11/09 07:45:48;;;;;;;13.70;3.53;;;;;;;16.86;100.00;100485.78;5002932;28;20055;-50
2022/11/09 07:48:13;;;;;;;12.77;3.40;;;;;;;16.81;100.00;100488.38;4985085;28;20276;-48
2022/11/09 07:50:39;;;;;;;10.18;3.58;;;;;;;17.30;100.00;100490.50;4985674;28;20035;-50
2022/11/09 07:53:07;;;;;;;14.13;4.40;;;;;;;17.49;100.00;100497.25;4986595;28;20054;-52
2022/11/09 07:55:33;;;;;;;13.30;2.97;;;;;;;17.54;100.00;100499.22;4988202;28;20292;-52
2022/11/09 07:58:09;;;;;;;24.57;4.07;;;;;;;17.36;100.00;100489.47;4989012;28;20284;-52
2022/11/09 08:00:37;;;;;;;17.40;3.47;;;;;;;17.39;100.00;100499.00;4985212;28;20319;-53
2022/11/09 08:03:03;;;;;;;14.70;2.67;;;;;;;17.52;100.00;100505.91;4988829;28;20268;-52
2022/11/09 08:05:29;;;;;;;;;;;;;;;17.62;100.00;100504.16;4988091;28;20637;-51
2022/11/09 08:07:56;;;;;;;8.40;2.37;;;;;;;17.24;100.00;100503.09;4989336;28;19921;-49
2022/11/09 08:10:23;;;;;;;12.30;3.07;;;;;;;17.28;100.00;100520.44;4981027;28;20042;-52
2022/11/09 08:12:56;;;;;;;13.47;2.70;;;;;;;17.59;100.00;100530.88;4986306;28;20280;-53
2022/11/09 08:15:23;;;;;;;20.10;3.50;;;;;;;17.68;100.00;100515.03;4983427;28;20265;-52
2022/11/09 08:17:49;;;;;;;20.40;4.73;;;;;;;17.42;100.00;100522.81;4987783;28;20289;-46
2022/11/09 08:20:15;;;;;;;21.55;3.45;;;;;;;17.94;100.00;100531.59;4987539;28;20269;-50
2022/11/09 08:22:42;;;;;;;12.77;2.75;;;;;;;17.63;100.00;100519.31;4987763;28;20054;-50
2022/11/09 08:25:09;;;;;;;16.38;3.40;;;;;;;18.22;100.00;100543.28;4985339;28;20169;-50
2022/11/09 08:27:38;;;;;;;;;;;;;;;17.11;100.00;100541.28;4981509;28;20034;-47
2022/11/09 08:30:07;;;;;;;14.80;2.90;;;;;;;17.37;100.00;100550.59;4985673;28;19937;-52
2022/11/09 08:32:33;;;;;;;16.87;3.87;;;;;;;17.07;100.00;100546.34;4989885;28;20277;-49
2022/11/09 08:34:59;;;;;;;19.55;4.28;;;;;;;17.06;100.00;100545.53;4987560;28;20304;-54
2022/11/09 08:37:24;;;;;;;24.03;4.80;;;;;;;17.12;100.00;100540.22;4986933;28;20047;-53
2022/11/09 08:39:50;;;;;;;14.63;3.15;;;;;;;17.16;100.00;100562.97;4990451;28;20031;-52
2022/11/09 08:42:16;;;;;;;13.80;4.32;;;;;;;17.10;100.00;100545.88;4990445;28;20113;-50
2022/11/09 08:44:41;;;;;;;12.23;3.00;;;;;;;17.04;100.00;100538.75;4988933;28;20035;-50
2022/11/09 08:47:07;;;;;;;14.43;2.67;;;;;;;17.01;100.00;100541.94;4990763;28;20281;-48
2022/11/09 08:49:33;;;;;;;13.80;3.33;;;;;;;17.54;100.00;100555.97;4988882;28;20069;-53
2022/11/09 08:52:00;;;;;;;;;;;;;;;18.08;100.00;100562.63;4991394;28;20043;-47
2022/11/09 08:54:25;;;;;;;13.43;3.23;;;;;;;18.09;100.00;100560.72;4988957;28;19918;-52
2022/11/09 08:56:54;;;;;;;22.17;5.10;;;;;;;17.75;100.00;100558.94;4987968;28;20308;-53
2022/11/09 08:59:20;;;;;;;14.20;3.67;;;;;;;17.70;100.00;100561.56;4986068;28;20383;-49
2022/11/09 09:01:45;;;;;;;15.07;2.85;;;;;;;18.29;100.00;100554.75;4988566;28;20050;-52
2022/11/09 09:04:11;;;;;;;13.35;2.85;;;;;;;17.98;100.00;100563.31;4985787;28;20043;-51
2022/11/09 09:06:36;;;;;;;17.57;3.50;;;;;;;18.95;100.00;100551.03;4984749;28;20039;-52
2022/11/09 09:09:02;;;;;;;12.00;3.43;;;;;;;19.11;100.00;100568.25;4988494;28;20073;-53
2022/11/09 09:11:28;;;;;;;12.50;2.80;;;;;;;18.43;100.00;100572.22;4988371;28;20035;-50
2022/11/09 09:13:53;;;;;;;10.10;3.10;;;;;;;18.69;100.00;100568.94;4985199;28;20058;-48
2022/11/09 09:16:18;;;;;;;12.80;3.30;;;;;;;19.13;100.00;100567.97;4989820;28;20039;-53
2022/11/09 09:18:46;;;;;;;6.17;2.73;;;;;;;18.96;100.00;100559.97;4990254;28;20049;-51
2022/11/09 09:21:12;;;;;;;17.97;3.20;;;;;;;18.76;100.00;100548.72;4989431;28;20039;-52
2022/11/09 09:23:38;;;;;;;18.88;2.95;;;;;;;18.52;100.00;100580.69;4990967;28;20049;-52
2022/11/09 09:26:03;;;;;;;15.25;3.38;;;;;;;18.92;100.00;100559.69;4992017;28;20039;-48
2022/11/09 09:28:29;;;;;;;10.48;2.63;;;;;;;19.32;100.00;100584.69;4988908;28;20035;-49
2022/11/09 09:30:58;;;;;;;17.37;3.10;;;;;;;18.73;100.00;100570.91;4990470;28;20054;-49
2022/11/09 09:33:24;;;;;;;13.13;2.80;;;;;;;18.86;100.00;100566.13;4986895;28;20042;-48
2022/11/09 09:35:50;;;;;;;14.95;2.33;;;;;;;20.08;100.00;100560.13;4990657;28;20043;-53
2022/11/09 09:38:15;;;;;;;12.20;3.00;;;;;;;18.53;100.00;100582.34;5033830;28;20046;-50
2022/11/09 09:40:52;;;;;;;10.45;3.25;;;;;;;19.25;100.00;100573.22;4987310;28;20041;-52
2022/11/09 09:43:41;;;;;;;15.25;3.20;;;;;;;18.98;100.00;100568.66;4989272;28;20035;-53
2022/11/09 09:46:22;;;;;;;13.63;3.03;;;;;;;19.24;100.00;100571.59;4990105;28;20062;-49
2022/11/09 09:48:54;;;;;;;12.33;3.03;;;;;;;19.31;100.00;100578.41;4986060;28;20034;-47
2022/11/09 09:51:31;;;;;;;14.20;3.00;;;;;;;19.17;100.00;100615.19;4984226;28;20041;-48
2022/11/09 09:54:04;;;;;;;10.73;2.90;;;;;;;19.68;100.00;100589.50;4987874;28;20064;-47
2022/11/09 09:56:33;;;;;;;12.27;2.97;;;;;;;20.48;100.00;100591.22;4985191;28;20040;-48
2022/11/09 09:59:09;;;;;;;14.97;2.60;;;;;;;19.29;100.00;100599.56;4984138;28;20035;-47
2022/11/09 10:01:38;;;;;;;11.88;3.10;;;;;;;19.73;100.00;100589.53;4987191;28;20042;-48
2022/11/09 10:04:22;;;;;;;8.53;2.50;;;;;;;19.59;100.00;100608.97;4987364;28;20049;-50
2022/11/09 10:07:13;;;;;;;12.00;2.60;;;;;;;19.56;100.00;100608.69;4983230;28;20039;-52
2022/11/09 10:09:59;;;;;;;13.83;3.17;;;;;;;20.44;100.00;100612.63;4985167;28;20034;-50
2022/11/09 10:12:36;;;;;;;9.30;2.47;;;;;;;19.47;100.00;100600.22;4988490;28;20042;-54
2022/11/09 10:15:05;;;;;;;;;;;;;;;19.97;100.00;100621.69;4984966;28;20474;-49
2022/11/09 10:17:48;;;;;;;20.87;2.67;;;;;;;19.65;100.00;100600.88;4986858;28;19920;-51
2022/11/09 10:20:37;;;;;;;8.97;2.07;;;;;;;19.65;100.00;100615.25;4982145;28;20122;-50
2022/11/09 10:23:25;;;;;;;15.77;1.93;;;;;;;20.18;100.00;100619.88;4982099;28;20050;-49
2022/11/09 10:25:59;;;;;;;16.33;3.10;;;;;;;19.20;100.00;100622.81;4983568;28;20038;-52
2022/11/09 10:28:28;;;;;;;22.37;3.07;;;;;;;18.59;100.00;100637.38;4983964;28;20039;-53
2022/11/09 10:30:53;;;;;;;12.60;2.57;;;;;;;19.11;100.00;100616.22;4987428;28;20053;-50
2022/11/09 10:33:20;;;;;;;13.80;2.38;;;;;;;19.02;100.00;100613.97;4985220;28;20031;-53
2022/11/09 10:35:55;;;;;;;8.07;2.47;;;;;;;19.46;100.00;100625.72;4989589;28;20033;-53
2022/11/09 10:38:27;;;;;;;13.60;2.27;;;;;;;19.76;100.00;100624.25;4982598;28;20023;-53
2022/11/09 10:41:30;;;;;;;12.93;2.53;;;;;;;19.85;100.00;100633.56;4987365;28;20071;-54
2022/11/09 10:44:18;;;;;;;12.43;2.17;;;;;;;19.74;100.00;100637.28;4987391;28;20054;-50
2022/11/09 10:47:06;;;;;;;13.97;2.30;;;;;;;19.79;100.00;100626.44;4983272;28;20155;-52
2022/11/09 10:50:19;;;;;;;13.73;3.40;;;;;;;19.68;100.00;100632.91;4987636;28;20034;-54
2022/11/09 10:53:14;;;;;;;12.20;2.23;;;;;;;21.09;100.00;100616.81;4986162;28;20093;-51
2022/11/09 10:56:17;;;;;;;29.10;2.63;;;;;;;21.28;100.00;100632.59;4984530;28;20820;-48
2022/11/09 10:59:01;;;;;;;13.17;2.13;;;;;;;19.90;100.00;100624.59;4987666;28;20057;-51
2022/11/09 11:01:46;;;;;;;11.00;2.20;;;;;;;19.71;100.00;100622.31;4987023;28;20041;-51
2022/11/09 11:04:31;;;;;;;12.13;2.20;;;;;;;19.70;100.00;100630.75;4985510;28;20124;-50
2022/11/09 11:07:21;;;;;;;15.27;2.10;;;;;;;19.66;100.00;100638.59;4988558;28;20046;-51
2022/11/09 11:10:23;;;;;;;11.40;2.00;;;;;;;20.59;100.00;100638.22;4983251;28;20069;-50
2022/11/09 11:13:07;;;;;;;12.97;2.50;;;;;;;20.12;100.00;100621.78;4984153;28;20081;-52
2022/11/09 11:15:52;;;;;;;15.13;2.60;;;;;;;19.85;100.00;100620.00;4982594;28;20073;-52
2022/11/09 11:18:36;;;;;;;8.43;1.93;;;;;;;19.76;100.00;100621.56;4982547;28;20103;-49
2022/11/09 11:21:22;;;;;;;12.10;2.13;;;;;;;20.24;100.00;100647.88;4986916;28;20117;-49
2022/11/09 11:24:19;;;;;;;16.63;3.80;;;;;;;20.28;100.00;100619.09;4986775;28;20081;-52
2022/11/09 11:27:09;;;;;;;9.17;2.37;;;;;;;20.19;100.00;100625.06;4988727;28;20099;-48